sensor_id;sensor_type;location;lat;lon;timestamp;P1;durP1;ratioP1;P2;durP2;ratioP2
11539;SDS011;5826;54.756;9.192;2022-07-29T00:01:32;2.17;;;1.48;;
11539;SDS011;5826;54.756;9.192;2022-07-29T00:03:58;2.63;;;1.60;;
11539;SDS011;5826;54.756;9.192;2022-07-29T00:06:23;2.63;;;1.70;;
11539;SDS011;5826;54.756;9.192;2022-07-29T00:08:49;2.80;;;1.70;;
11539;SDS011;5826;54.756;9.192;2022-07-29T00:11:14;2.50;;;1.70;;
11539;SDS011;5826;54.756;9.192;2022-07-29T00:13:40;2.42;;;1.50;;
11539;SDS011;5826;54.756;9.192;2022-07-29T00:16:05;1.88;;;1.70;;
11539;SDS011;5826;54.756;9.192;2022-07-29T00:18:31;1.90;;;1.50;;
11539;SDS011;5826;54.756;9.192;2022-07-29T00:20:57;1.92;;;1.80;;
11539;SDS011;5826;54.756;9.192;2022-07-29T00:23:22;2.58;;;1.73;;
11539;SDS011;5826;54.756;9.192;2022-07-29T00:25:48;2.10;;;1.90;;
11539;SDS011;5826;54.756;9.192;2022-07-29T00:28:13;3.35;;;2.08;;
11539;SDS011;5826;54.756;9.192;2022-07-29T00:30:39;2.10;;;1.60;;
11539;SDS011;5826;54.756;9.192;2022-07-29T00:33:06;2.63;;;1.70;;
11539;SDS011;5826;54.756;9.192;2022-07-29T00:35:32;2.20;;;1.90;;
11539;SDS011;5826;54.756;9.192;2022-07-29T00:38:10;1.75;;;1.63;;
11539;SDS011;5826;54.756;9.192;2022-07-29T00:40:36;3.15;;;1.70;;
11539;SDS011;5826;54.756;9.192;2022-07-29T00:43:02;2.50;;;1.73;;
11539;SDS011;5826;54.756;9.192;2022-07-29T00:45:27;1.80;;;1.58;;
11539;SDS011;5826;54.756;9.192;2022-07-29T00:47:54;3.53;;;1.77;;
11539;SDS011;5826;54.756;9.192;2022-07-29T00:50:20;2.17;;;1.73;;
11539;SDS011;5826;54.756;9.192;2022-07-29T00:52:45;1.92;;;1.70;;
11539;SDS011;5826;54.756;9.192;2022-07-29T00:55:12;2.25;;;1.60;;
11539;SDS011;5826;54.756;9.192;2022-07-29T00:57:39;1.92;;;1.80;;
11539;SDS011;5826;54.756;9.192;2022-07-29T01:00:07;2.25;;;1.90;;
11539;SDS011;5826;54.756;9.192;2022-07-29T01:02:35;2.95;;;1.70;;
11539;SDS011;5826;54.756;9.192;2022-07-29T01:05:01;2.00;;;1.52;;
11539;SDS011;5826;54.756;9.192;2022-07-29T01:07:27;2.35;;;1.70;;
11539;SDS011;5826;54.756;9.192;2022-07-29T01:09:54;1.92;;;1.70;;
11539;SDS011;5826;54.756;9.192;2022-07-29T01:12:22;2.28;;;1.83;;
11539;SDS011;5826;54.756;9.192;2022-07-29T01:14:50;2.08;;;1.50;;
11539;SDS011;5826;54.756;9.192;2022-07-29T01:17:33;2.00;;;1.80;;
11539;SDS011;5826;54.756;9.192;2022-07-29T01:20:20;2.53;;;1.75;;
11539;SDS011;5826;54.756;9.192;2022-07-29T01:23:05;1.58;;;1.48;;
11539;SDS011;5826;54.756;9.192;2022-07-29T01:28:46;1.67;;;1.58;;
11539;SDS011;5826;54.756;9.192;2022-07-29T01:31:27;2.35;;;1.60;;
11539;SDS011;5826;54.756;9.192;2022-07-29T01:33:58;1.85;;;1.75;;
11539;SDS011;5826;54.756;9.192;2022-07-29T01:36:45;2.65;;;1.88;;
11539;SDS011;5826;54.756;9.192;2022-07-29T01:39:36;1.60;;;1.50;;
11539;SDS011;5826;54.756;9.192;2022-07-29T01:42:20;2.28;;;1.70;;
11539;SDS011;5826;54.756;9.192;2022-07-29T01:47:20;2.22;;;1.80;;
11539;SDS011;5826;54.756;9.192;2022-07-29T01:49:51;2.05;;;1.77;;
11539;SDS011;5826;54.756;9.192;2022-07-29T01:52:44;2.58;;;2.05;;
11539;SDS011;5826;54.756;9.192;2022-07-29T01:55:12;1.95;;;1.85;;
11539;SDS011;5826;54.756;9.192;2022-07-29T01:57:40;2.30;;;1.70;;
11539;SDS011;5826;54.756;9.192;2022-07-29T02:00:09;2.53;;;1.65;;
11539;SDS011;5826;54.756;9.192;2022-07-29T02:02:35;2.70;;;1.60;;
11539;SDS011;5826;54.756;9.192;2022-07-29T02:05:03;2.88;;;2.22;;
11539;SDS011;5826;54.756;9.192;2022-07-29T02:07:32;2.00;;;1.80;;
11539;SDS011;5826;54.756;9.192;2022-07-29T02:09:59;2.60;;;1.67;;
11539;SDS011;5826;54.756;9.192;2022-07-29T02:12:27;1.98;;;1.65;;
11539;SDS011;5826;54.756;9.192;2022-07-29T02:14:53;2.50;;;1.85;;
11539;SDS011;5826;54.756;9.192;2022-07-29T02:17:23;2.38;;;1.80;;
11539;SDS011;5826;54.756;9.192;2022-07-29T02:19:53;2.38;;;2.00;;
11539;SDS011;5826;54.756;9.192;2022-07-29T02:22:22;2.10;;;1.90;;
11539;SDS011;5826;54.756;9.192;2022-07-29T02:24:49;2.25;;;1.70;;
11539;SDS011;5826;54.756;9.192;2022-07-29T02:27:16;2.28;;;1.90;;
11539;SDS011;5826;54.756;9.192;2022-07-29T02:29:45;2.78;;;1.92;;
11539;SDS011;5826;54.756;9.192;2022-07-29T02:32:12;2.35;;;2.15;;
11539;SDS011;5826;54.756;9.192;2022-07-29T02:34:40;2.30;;;2.10;;
11539;SDS011;5826;54.756;9.192;2022-07-29T02:37:08;2.65;;;2.20;;
11539;SDS011;5826;54.756;9.192;2022-07-29T02:39:36;3.38;;;2.33;;
11539;SDS011;5826;54.756;9.192;2022-07-29T02:42:05;2.30;;;2.10;;
11539;SDS011;5826;54.756;9.192;2022-07-29T02:44:33;2.08;;;1.98;;
11539;SDS011;5826;54.756;9.192;2022-07-29T02:47:19;2.15;;;1.95;;
11539;SDS011;5826;54.756;9.192;2022-07-29T02:49:52;4.35;;;2.22;;
11539;SDS011;5826;54.756;9.192;2022-07-29T02:55:37;3.20;;;2.10;;
11539;SDS011;5826;54.756;9.192;2022-07-29T03:00:40;2.13;;;1.77;;
11539;SDS011;5826;54.756;9.192;2022-07-29T03:03:08;3.42;;;2.10;;
11539;SDS011;5826;54.756;9.192;2022-07-29T03:05:37;2.70;;;2.35;;
11539;SDS011;5826;54.756;9.192;2022-07-29T03:08:04;2.45;;;2.08;;
11539;SDS011;5826;54.756;9.192;2022-07-29T03:10:31;2.50;;;1.77;;
11539;SDS011;5826;54.756;9.192;2022-07-29T03:12:58;2.40;;;1.98;;
11539;SDS011;5826;54.756;9.192;2022-07-29T03:15:24;2.30;;;2.10;;
11539;SDS011;5826;54.756;9.192;2022-07-29T03:17:51;2.30;;;2.10;;
11539;SDS011;5826;54.756;9.192;2022-07-29T03:20:17;2.25;;;2.05;;
11539;SDS011;5826;54.756;9.192;2022-07-29T03:22:44;2.47;;;2.15;;
11539;SDS011;5826;54.756;9.192;2022-07-29T03:25:13;2.70;;;2.00;;
11539;SDS011;5826;54.756;9.192;2022-07-29T03:27:40;2.10;;;1.90;;
11539;SDS011;5826;54.756;9.192;2022-07-29T03:30:06;3.20;;;2.33;;
11539;SDS011;5826;54.756;9.192;2022-07-29T03:32:33;2.15;;;1.90;;
11539;SDS011;5826;54.756;9.192;2022-07-29T03:34:58;3.25;;;2.17;;
11539;SDS011;5826;54.756;9.192;2022-07-29T03:37:24;2.50;;;2.30;;
11539;SDS011;5826;54.756;9.192;2022-07-29T03:39:50;2.38;;;2.03;;
11539;SDS011;5826;54.756;9.192;2022-07-29T03:42:18;2.33;;;2.00;;
11539;SDS011;5826;54.756;9.192;2022-07-29T03:44:45;2.30;;;2.10;;
11539;SDS011;5826;54.756;9.192;2022-07-29T03:47:13;2.47;;;2.00;;
11539;SDS011;5826;54.756;9.192;2022-07-29T03:49:41;2.13;;;1.92;;
11539;SDS011;5826;54.756;9.192;2022-07-29T03:52:09;2.17;;;1.92;;
11539;SDS011;5826;54.756;9.192;2022-07-29T03:54:34;2.03;;;1.88;;
11539;SDS011;5826;54.756;9.192;2022-07-29T03:57:01;2.08;;;1.88;;
11539;SDS011;5826;54.756;9.192;2022-07-29T03:59:27;1.92;;;1.73;;
11539;SDS011;5826;54.756;9.192;2022-07-29T04:01:53;1.85;;;1.63;;
11539;SDS011;5826;54.756;9.192;2022-07-29T04:04:20;2.30;;;1.90;;
11539;SDS011;5826;54.756;9.192;2022-07-29T04:06:46;1.67;;;1.58;;
11539;SDS011;5826;54.756;9.192;2022-07-29T04:09:12;1.92;;;1.83;;
11539;SDS011;5826;54.756;9.192;2022-07-29T04:11:38;2.35;;;1.65;;
11539;SDS011;5826;54.756;9.192;2022-07-29T04:14:04;1.92;;;1.83;;
11539;SDS011;5826;54.756;9.192;2022-07-29T04:16:30;2.00;;;1.77;;
11539;SDS011;5826;54.756;9.192;2022-07-29T04:18:56;2.10;;;1.90;;
11539;SDS011;5826;54.756;9.192;2022-07-29T04:21:22;2.35;;;1.70;;
11539;SDS011;5826;54.756;9.192;2022-07-29T04:23:47;1.83;;;1.67;;
11539;SDS011;5826;54.756;9.192;2022-07-29T04:26:16;1.80;;;1.60;;
11539;SDS011;5826;54.756;9.192;2022-07-29T04:28:42;1.90;;;1.70;;
11539;SDS011;5826;54.756;9.192;2022-07-29T04:31:08;3.00;;;1.70;;
11539;SDS011;5826;54.756;9.192;2022-07-29T04:33:34;2.47;;;1.55;;
11539;SDS011;5826;54.756;9.192;2022-07-29T04:35:59;1.95;;;1.60;;
11539;SDS011;5826;54.756;9.192;2022-07-29T04:38:25;2.25;;;1.52;;
11539;SDS011;5826;54.756;9.192;2022-07-29T04:40:50;2.25;;;1.63;;
11539;SDS011;5826;54.756;9.192;2022-07-29T04:43:16;2.22;;;1.88;;
11539;SDS011;5826;54.756;9.192;2022-07-29T04:45:41;2.92;;;1.95;;
11539;SDS011;5826;54.756;9.192;2022-07-29T04:48:07;1.85;;;1.58;;
11539;SDS011;5826;54.756;9.192;2022-07-29T04:50:33;2.17;;;1.98;;
11539;SDS011;5826;54.756;9.192;2022-07-29T04:52:58;3.17;;;1.88;;
11539;SDS011;5826;54.756;9.192;2022-07-29T04:55:24;1.77;;;1.67;;
11539;SDS011;5826;54.756;9.192;2022-07-29T04:57:50;1.60;;;1.50;;
11539;SDS011;5826;54.756;9.192;2022-07-29T05:00:15;1.83;;;1.50;;
11539;SDS011;5826;54.756;9.192;2022-07-29T05:02:41;2.15;;;1.50;;
11539;SDS011;5826;54.756;9.192;2022-07-29T05:05:07;1.50;;;1.40;;
11539;SDS011;5826;54.756;9.192;2022-07-29T05:07:33;1.80;;;1.70;;
11539;SDS011;5826;54.756;9.192;2022-07-29T05:09:58;2.08;;;1.52;;
11539;SDS011;5826;54.756;9.192;2022-07-29T05:12:24;4.72;;;1.63;;
11539;SDS011;5826;54.756;9.192;2022-07-29T05:14:50;2.50;;;1.70;;
11539;SDS011;5826;54.756;9.192;2022-07-29T05:17:16;2.65;;;1.63;;
11539;SDS011;5826;54.756;9.192;2022-07-29T05:19:41;2.45;;;1.60;;
11539;SDS011;5826;54.756;9.192;2022-07-29T05:22:07;2.20;;;1.50;;
11539;SDS011;5826;54.756;9.192;2022-07-29T05:24:32;1.60;;;1.42;;
11539;SDS011;5826;54.756;9.192;2022-07-29T05:26:58;1.67;;;1.52;;
11539;SDS011;5826;54.756;9.192;2022-07-29T05:29:23;2.70;;;1.52;;
11539;SDS011;5826;54.756;9.192;2022-07-29T05:31:49;1.60;;;1.50;;
11539;SDS011;5826;54.756;9.192;2022-07-29T05:34:16;2.17;;;1.83;;
11539;SDS011;5826;54.756;9.192;2022-07-29T05:36:41;1.40;;;1.30;;
11539;SDS011;5826;54.756;9.192;2022-07-29T05:39:07;1.58;;;1.48;;
11539;SDS011;5826;54.756;9.192;2022-07-29T05:41:32;2.10;;;1.55;;
11539;SDS011;5826;54.756;9.192;2022-07-29T05:43:58;1.60;;;1.40;;
11539;SDS011;5826;54.756;9.192;2022-07-29T05:46:23;1.30;;;1.20;;
11539;SDS011;5826;54.756;9.192;2022-07-29T05:48:49;1.95;;;1.50;;
11539;SDS011;5826;54.756;9.192;2022-07-29T05:51:14;1.83;;;1.52;;
11539;SDS011;5826;54.756;9.192;2022-07-29T05:53:40;1.67;;;1.58;;
11539;SDS011;5826;54.756;9.192;2022-07-29T05:56:06;2.65;;;1.50;;
11539;SDS011;5826;54.756;9.192;2022-07-29T05:58:32;1.30;;;1.20;;
11539;SDS011;5826;54.756;9.192;2022-07-29T06:00:57;1.40;;;1.30;;
11539;SDS011;5826;54.756;9.192;2022-07-29T06:03:26;2.15;;;1.30;;
11539;SDS011;5826;54.756;9.192;2022-07-29T06:05:52;1.40;;;1.30;;
11539;SDS011;5826;54.756;9.192;2022-07-29T06:08:17;1.33;;;1.23;;
11539;SDS011;5826;54.756;9.192;2022-07-29T06:10:43;1.48;;;1.33;;
11539;SDS011;5826;54.756;9.192;2022-07-29T06:13:09;1.30;;;1.20;;
11539;SDS011;5826;54.756;9.192;2022-07-29T06:15:34;1.48;;;1.38;;
11539;SDS011;5826;54.756;9.192;2022-07-29T06:18:00;1.35;;;1.15;;
11539;SDS011;5826;54.756;9.192;2022-07-29T06:20:26;1.38;;;1.27;;
11539;SDS011;5826;54.756;9.192;2022-07-29T06:22:54;1.42;;;1.33;;
11539;SDS011;5826;54.756;9.192;2022-07-29T06:25:19;1.48;;;1.38;;
11539;SDS011;5826;54.756;9.192;2022-07-29T06:27:45;1.25;;;1.15;;
11539;SDS011;5826;54.756;9.192;2022-07-29T06:30:11;1.30;;;1.20;;
11539;SDS011;5826;54.756;9.192;2022-07-29T06:32:36;1.20;;;1.10;;
11539;SDS011;5826;54.756;9.192;2022-07-29T06:35:02;1.30;;;1.15;;
11539;SDS011;5826;54.756;9.192;2022-07-29T06:37:28;1.20;;;1.10;;
11539;SDS011;5826;54.756;9.192;2022-07-29T06:39:53;1.45;;;1.20;;
11539;SDS011;5826;54.756;9.192;2022-07-29T06:42:42;1.15;;;1.00;;
11539;SDS011;5826;54.756;9.192;2022-07-29T06:45:09;1.10;;;0.90;;
11539;SDS011;5826;54.756;9.192;2022-07-29T06:47:38;1.27;;;1.10;;
11539;SDS011;5826;54.756;9.192;2022-07-29T06:50:04;1.45;;;1.10;;
11539;SDS011;5826;54.756;9.192;2022-07-29T06:52:29;1.23;;;1.13;;
11539;SDS011;5826;54.756;9.192;2022-07-29T06:54:55;1.20;;;1.10;;
11539;SDS011;5826;54.756;9.192;2022-07-29T06:57:21;0.90;;;0.90;;
11539;SDS011;5826;54.756;9.192;2022-07-29T06:59:46;0.88;;;0.75;;
11539;SDS011;5826;54.756;9.192;2022-07-29T07:02:12;0.90;;;0.73;;
11539;SDS011;5826;54.756;9.192;2022-07-29T07:04:38;1.05;;;0.95;;
11539;SDS011;5826;54.756;9.192;2022-07-29T07:07:04;0.85;;;0.85;;
11539;SDS011;5826;54.756;9.192;2022-07-29T07:09:29;1.10;;;0.95;;
11539;SDS011;5826;54.756;9.192;2022-07-29T07:11:55;1.00;;;0.90;;
11539;SDS011;5826;54.756;9.192;2022-07-29T07:14:20;1.27;;;0.90;;
11539;SDS011;5826;54.756;9.192;2022-07-29T07:16:45;1.13;;;1.00;;
11539;SDS011;5826;54.756;9.192;2022-07-29T07:19:11;1.58;;;1.00;;
11539;SDS011;5826;54.756;9.192;2022-07-29T07:21:37;1.05;;;0.90;;
11539;SDS011;5826;54.756;9.192;2022-07-29T07:24:02;0.90;;;0.80;;
11539;SDS011;5826;54.756;9.192;2022-07-29T07:26:28;1.38;;;1.00;;
11539;SDS011;5826;54.756;9.192;2022-07-29T07:28:53;1.08;;;0.90;;
11539;SDS011;5826;54.756;9.192;2022-07-29T07:31:19;1.30;;;1.10;;
11539;SDS011;5826;54.756;9.192;2022-07-29T07:33:45;1.00;;;1.00;;
11539;SDS011;5826;54.756;9.192;2022-07-29T07:36:10;1.20;;;1.10;;
11539;SDS011;5826;54.756;9.192;2022-07-29T07:38:36;1.00;;;1.00;;
11539;SDS011;5826;54.756;9.192;2022-07-29T07:41:01;1.75;;;1.02;;
11539;SDS011;5826;54.756;9.192;2022-07-29T07:43:27;1.30;;;1.00;;
11539;SDS011;5826;54.756;9.192;2022-07-29T07:45:52;1.30;;;1.00;;
11539;SDS011;5826;54.756;9.192;2022-07-29T07:48:18;1.65;;;1.00;;
11539;SDS011;5826;54.756;9.192;2022-07-29T07:50:43;1.33;;;1.10;;
11539;SDS011;5826;54.756;9.192;2022-07-29T07:53:09;1.35;;;1.02;;
11539;SDS011;5826;54.756;9.192;2022-07-29T07:55:39;1.60;;;1.15;;
11539;SDS011;5826;54.756;9.192;2022-07-29T07:58:05;1.45;;;1.15;;
11539;SDS011;5826;54.756;9.192;2022-07-29T08:00:31;2.20;;;1.17;;
11539;SDS011;5826;54.756;9.192;2022-07-29T08:02:57;1.20;;;1.10;;
11539;SDS011;5826;54.756;9.192;2022-07-29T08:05:23;1.48;;;1.20;;
11539;SDS011;5826;54.756;9.192;2022-07-29T08:07:49;2.15;;;1.00;;
11539;SDS011;5826;54.756;9.192;2022-07-29T08:10:15;1.27;;;1.15;;
11539;SDS011;5826;54.756;9.192;2022-07-29T08:13:02;1.90;;;1.17;;
11539;SDS011;5826;54.756;9.192;2022-07-29T08:15:30;1.77;;;1.08;;
11539;SDS011;5826;54.756;9.192;2022-07-29T08:17:56;2.15;;;1.20;;
11539;SDS011;5826;54.756;9.192;2022-07-29T08:20:22;1.85;;;1.15;;
11539;SDS011;5826;54.756;9.192;2022-07-29T08:22:47;1.95;;;1.17;;
11539;SDS011;5826;54.756;9.192;2022-07-29T08:25:13;1.05;;;1.00;;
11539;SDS011;5826;54.756;9.192;2022-07-29T08:27:38;3.60;;;1.27;;
11539;SDS011;5826;54.756;9.192;2022-07-29T08:30:04;2.08;;;1.25;;
11539;SDS011;5826;54.756;9.192;2022-07-29T08:32:30;1.30;;;1.10;;
11539;SDS011;5826;54.756;9.192;2022-07-29T08:34:56;1.02;;;1.00;;
11539;SDS011;5826;54.756;9.192;2022-07-29T08:37:22;1.90;;;1.10;;
11539;SDS011;5826;54.756;9.192;2022-07-29T08:39:47;1.50;;;1.20;;
11539;SDS011;5826;54.756;9.192;2022-07-29T08:42:13;1.48;;;1.08;;
11539;SDS011;5826;54.756;9.192;2022-07-29T08:44:38;1.88;;;1.40;;
11539;SDS011;5826;54.756;9.192;2022-07-29T08:47:04;2.58;;;1.30;;
11539;SDS011;5826;54.756;9.192;2022-07-29T08:49:30;3.80;;;1.25;;
11539;SDS011;5826;54.756;9.192;2022-07-29T08:51:57;1.10;;;1.00;;
11539;SDS011;5826;54.756;9.192;2022-07-29T08:54:24;1.85;;;1.30;;
11539;SDS011;5826;54.756;9.192;2022-07-29T08:56:50;1.27;;;1.17;;
11539;SDS011;5826;54.756;9.192;2022-07-29T08:59:20;1.40;;;1.20;;
11539;SDS011;5826;54.756;9.192;2022-07-29T09:01:49;1.85;;;1.20;;
11539;SDS011;5826;54.756;9.192;2022-07-29T09:04:18;2.00;;;1.27;;
11539;SDS011;5826;54.756;9.192;2022-07-29T09:06:46;1.40;;;1.02;;
11539;SDS011;5826;54.756;9.192;2022-07-29T09:09:14;1.75;;;1.15;;
11539;SDS011;5826;54.756;9.192;2022-07-29T09:11:40;1.60;;;1.17;;
11539;SDS011;5826;54.756;9.192;2022-07-29T09:14:07;1.10;;;1.00;;
11539;SDS011;5826;54.756;9.192;2022-07-29T09:16:49;1.80;;;1.35;;
11539;SDS011;5826;54.756;9.192;2022-07-29T09:19:21;1.30;;;1.00;;
11539;SDS011;5826;54.756;9.192;2022-07-29T09:21:48;2.53;;;1.30;;
11539;SDS011;5826;54.756;9.192;2022-07-29T09:24:22;1.60;;;1.20;;
11539;SDS011;5826;54.756;9.192;2022-07-29T09:26:48;1.30;;;1.20;;
11539;SDS011;5826;54.756;9.192;2022-07-29T09:29:15;1.33;;;1.20;;
11539;SDS011;5826;54.756;9.192;2022-07-29T09:31:46;2.10;;;1.38;;
11539;SDS011;5826;54.756;9.192;2022-07-29T09:34:21;1.77;;;1.23;;
11539;SDS011;5826;54.756;9.192;2022-07-29T09:36:49;1.42;;;1.30;;
11539;SDS011;5826;54.756;9.192;2022-07-29T09:39:15;1.30;;;0.98;;
11539;SDS011;5826;54.756;9.192;2022-07-29T09:42:03;2.22;;;1.30;;
11539;SDS011;5826;54.756;9.192;2022-07-29T09:44:46;1.27;;;1.17;;
11539;SDS011;5826;54.756;9.192;2022-07-29T09:47:13;2.00;;;1.13;;
11539;SDS011;5826;54.756;9.192;2022-07-29T09:52:27;1.40;;;1.30;;
11539;SDS011;5826;54.756;9.192;2022-07-29T09:55:07;1.60;;;1.10;;
11539;SDS011;5826;54.756;9.192;2022-07-29T09:57:33;2.05;;;1.25;;
11539;SDS011;5826;54.756;9.192;2022-07-29T10:00:00;1.20;;;1.10;;
11539;SDS011;5826;54.756;9.192;2022-07-29T10:02:31;1.63;;;1.27;;
11539;SDS011;5826;54.756;9.192;2022-07-29T10:04:58;4.28;;;1.40;;
11539;SDS011;5826;54.756;9.192;2022-07-29T10:07:25;1.70;;;1.33;;
11539;SDS011;5826;54.756;9.192;2022-07-29T10:09:55;3.10;;;1.48;;
11539;SDS011;5826;54.756;9.192;2022-07-29T10:12:22;1.30;;;1.15;;
11539;SDS011;5826;54.756;9.192;2022-07-29T10:14:48;2.10;;;1.40;;
11539;SDS011;5826;54.756;9.192;2022-07-29T10:17:15;1.60;;;1.20;;
11539;SDS011;5826;54.756;9.192;2022-07-29T10:19:41;2.70;;;1.30;;
11539;SDS011;5826;54.756;9.192;2022-07-29T10:22:08;1.30;;;1.20;;
11539;SDS011;5826;54.756;9.192;2022-07-29T10:24:35;2.45;;;1.42;;
11539;SDS011;5826;54.756;9.192;2022-07-29T10:27:03;3.42;;;1.38;;
11539;SDS011;5826;54.756;9.192;2022-07-29T10:29:30;2.08;;;1.20;;
11539;SDS011;5826;54.756;9.192;2022-07-29T10:43:50;1.88;;;1.30;;
11539;SDS011;5826;54.756;9.192;2022-07-29T10:46:16;3.20;;;1.40;;
11539;SDS011;5826;54.756;9.192;2022-07-29T10:52:35;1.70;;;1.45;;
11539;SDS011;5826;54.756;9.192;2022-07-29T10:54:37;2.08;;;1.40;;
11539;SDS011;5826;54.756;9.192;2022-07-29T10:57:16;2.55;;;1.30;;
11539;SDS011;5826;54.756;9.192;2022-07-29T10:59:45;2.58;;;1.42;;
11539;SDS011;5826;54.756;9.192;2022-07-29T11:05:05;2.70;;;1.67;;
11539;SDS011;5826;54.756;9.192;2022-07-29T11:07:32;2.08;;;1.50;;
11539;SDS011;5826;54.756;9.192;2022-07-29T11:26:12;2.38;;;1.70;;
11539;SDS011;5826;54.756;9.192;2022-07-29T11:28:50;1.65;;;1.50;;
11539;SDS011;5826;54.756;9.192;2022-07-29T11:37:13;1.80;;;1.40;;
11539;SDS011;5826;54.756;9.192;2022-07-29T11:39:47;2.72;;;1.85;;
11539;SDS011;5826;54.756;9.192;2022-07-29T11:47:31;1.67;;;1.42;;
11539;SDS011;5826;54.756;9.192;2022-07-29T11:49:58;1.67;;;1.40;;
11539;SDS011;5826;54.756;9.192;2022-07-29T11:52:32;2.58;;;1.67;;
11539;SDS011;5826;54.756;9.192;2022-07-29T12:02:52;1.65;;;1.40;;
11539;SDS011;5826;54.756;9.192;2022-07-29T12:05:19;1.55;;;1.30;;
11539;SDS011;5826;54.756;9.192;2022-07-29T12:07:45;2.20;;;1.50;;
11539;SDS011;5826;54.756;9.192;2022-07-29T12:10:12;2.22;;;1.50;;
11539;SDS011;5826;54.756;9.192;2022-07-29T12:12:38;1.65;;;1.35;;
11539;SDS011;5826;54.756;9.192;2022-07-29T12:15:16;2.97;;;1.52;;
11539;SDS011;5826;54.756;9.192;2022-07-29T12:17:45;1.27;;;1.15;;
11539;SDS011;5826;54.756;9.192;2022-07-29T12:20:11;1.83;;;1.45;;
11539;SDS011;5826;54.756;9.192;2022-07-29T12:22:38;1.50;;;1.23;;
11539;SDS011;5826;54.756;9.192;2022-07-29T12:25:12;1.63;;;1.27;;
11539;SDS011;5826;54.756;9.192;2022-07-29T12:27:43;1.73;;;1.27;;
11539;SDS011;5826;54.756;9.192;2022-07-29T12:30:09;1.40;;;1.20;;
11539;SDS011;5826;54.756;9.192;2022-07-29T12:32:40;1.70;;;1.45;;
11539;SDS011;5826;54.756;9.192;2022-07-29T12:35:11;1.48;;;1.10;;
11539;SDS011;5826;54.756;9.192;2022-07-29T12:37:39;2.03;;;1.30;;
11539;SDS011;5826;54.756;9.192;2022-07-29T12:40:06;2.13;;;1.40;;
11539;SDS011;5826;54.756;9.192;2022-07-29T12:42:33;1.77;;;1.60;;
11539;SDS011;5826;54.756;9.192;2022-07-29T12:44:59;1.77;;;1.23;;
11539;SDS011;5826;54.756;9.192;2022-07-29T12:47:26;1.73;;;1.33;;
11539;SDS011;5826;54.756;9.192;2022-07-29T12:50:07;1.40;;;1.30;;
11539;SDS011;5826;54.756;9.192;2022-07-29T12:52:37;1.35;;;1.20;;
11539;SDS011;5826;54.756;9.192;2022-07-29T12:55:03;3.15;;;1.30;;
11539;SDS011;5826;54.756;9.192;2022-07-29T12:57:30;1.75;;;1.27;;
11539;SDS011;5826;54.756;9.192;2022-07-29T13:02:30;1.77;;;1.38;;
11539;SDS011;5826;54.756;9.192;2022-07-29T13:04:57;1.98;;;1.30;;
11539;SDS011;5826;54.756;9.192;2022-07-29T13:07:24;1.83;;;1.35;;
11539;SDS011;5826;54.756;9.192;2022-07-29T13:09:53;1.15;;;1.05;;
11539;SDS011;5826;54.756;9.192;2022-07-29T13:12:34;1.27;;;1.17;;
11539;SDS011;5826;54.756;9.192;2022-07-29T13:14:59;1.65;;;1.20;;
11539;SDS011;5826;54.756;9.192;2022-07-29T13:17:25;1.85;;;1.25;;
11539;SDS011;5826;54.756;9.192;2022-07-29T13:20:07;1.95;;;1.20;;
11539;SDS011;5826;54.756;9.192;2022-07-29T13:22:37;1.60;;;1.25;;
11539;SDS011;5826;54.756;9.192;2022-07-29T13:25:03;2.95;;;1.25;;
11539;SDS011;5826;54.756;9.192;2022-07-29T13:27:31;1.50;;;1.10;;
11539;SDS011;5826;54.756;9.192;2022-07-29T13:29:59;1.70;;;1.25;;
11539;SDS011;5826;54.756;9.192;2022-07-29T13:32:27;1.38;;;1.10;;
11539;SDS011;5826;54.756;9.192;2022-07-29T13:34:57;1.10;;;1.00;;
11539;SDS011;5826;54.756;9.192;2022-07-29T13:37:24;1.30;;;1.20;;
11539;SDS011;5826;54.756;9.192;2022-07-29T13:39:51;1.88;;;1.23;;
11539;SDS011;5826;54.756;9.192;2022-07-29T13:42:17;2.15;;;1.42;;
11539;SDS011;5826;54.756;9.192;2022-07-29T13:44:43;2.63;;;1.42;;
11539;SDS011;5826;54.756;9.192;2022-07-29T13:47:09;2.35;;;1.63;;
11539;SDS011;5826;54.756;9.192;2022-07-29T13:49:34;1.58;;;1.40;;
11539;SDS011;5826;54.756;9.192;2022-07-29T13:52:00;2.67;;;1.17;;
11539;SDS011;5826;54.756;9.192;2022-07-29T13:54:27;2.00;;;1.23;;
11539;SDS011;5826;54.756;9.192;2022-07-29T13:56:52;1.77;;;1.30;;
11539;SDS011;5826;54.756;9.192;2022-07-29T13:59:18;1.73;;;1.30;;
11539;SDS011;5826;54.756;9.192;2022-07-29T14:01:43;1.90;;;1.30;;
11539;SDS011;5826;54.756;9.192;2022-07-29T14:04:09;2.45;;;1.40;;
11539;SDS011;5826;54.756;9.192;2022-07-29T14:06:35;2.38;;;1.30;;
11539;SDS011;5826;54.756;9.192;2022-07-29T14:09:02;1.35;;;1.20;;
11539;SDS011;5826;54.756;9.192;2022-07-29T14:11:31;2.15;;;1.30;;
11539;SDS011;5826;54.756;9.192;2022-07-29T14:13:57;2.78;;;1.27;;
11539;SDS011;5826;54.756;9.192;2022-07-29T14:16:22;1.23;;;1.10;;
11539;SDS011;5826;54.756;9.192;2022-07-29T14:18:48;1.33;;;1.20;;
11539;SDS011;5826;54.756;9.192;2022-07-29T14:21:13;1.83;;;1.20;;
11539;SDS011;5826;54.756;9.192;2022-07-29T14:23:39;3.20;;;1.30;;
11539;SDS011;5826;54.756;9.192;2022-07-29T14:26:05;1.40;;;1.30;;
11539;SDS011;5826;54.756;9.192;2022-07-29T14:28:31;1.30;;;1.20;;
11539;SDS011;5826;54.756;9.192;2022-07-29T14:30:56;2.85;;;1.40;;
11539;SDS011;5826;54.756;9.192;2022-07-29T14:33:22;1.65;;;1.20;;
11539;SDS011;5826;54.756;9.192;2022-07-29T14:35:48;2.35;;;1.33;;
11539;SDS011;5826;54.756;9.192;2022-07-29T14:38:13;1.35;;;1.15;;
11539;SDS011;5826;54.756;9.192;2022-07-29T14:40:39;2.55;;;1.58;;
11539;SDS011;5826;54.756;9.192;2022-07-29T14:43:05;1.90;;;1.08;;
11539;SDS011;5826;54.756;9.192;2022-07-29T14:45:30;2.67;;;1.40;;
11539;SDS011;5826;54.756;9.192;2022-07-29T14:47:56;2.20;;;1.40;;
11539;SDS011;5826;54.756;9.192;2022-07-29T14:50:22;2.13;;;1.50;;
11539;SDS011;5826;54.756;9.192;2022-07-29T14:52:47;3.83;;;1.50;;
11539;SDS011;5826;54.756;9.192;2022-07-29T14:55:13;1.90;;;1.50;;
11539;SDS011;5826;54.756;9.192;2022-07-29T14:57:38;2.90;;;1.38;;
11539;SDS011;5826;54.756;9.192;2022-07-29T15:00:05;2.78;;;1.50;;
11539;SDS011;5826;54.756;9.192;2022-07-29T15:02:33;2.05;;;1.30;;
11539;SDS011;5826;54.756;9.192;2022-07-29T15:04:58;1.55;;;1.20;;
11539;SDS011;5826;54.756;9.192;2022-07-29T15:07:24;3.15;;;1.30;;
11539;SDS011;5826;54.756;9.192;2022-07-29T15:09:50;2.78;;;1.30;;
11539;SDS011;5826;54.756;9.192;2022-07-29T15:12:16;1.60;;;1.30;;
11539;SDS011;5826;54.756;9.192;2022-07-29T15:14:41;1.63;;;1.15;;
11539;SDS011;5826;54.756;9.192;2022-07-29T15:17:07;1.88;;;1.30;;
11539;SDS011;5826;54.756;9.192;2022-07-29T15:19:32;2.45;;;1.17;;
11539;SDS011;5826;54.756;9.192;2022-07-29T15:21:59;1.70;;;1.27;;
11539;SDS011;5826;54.756;9.192;2022-07-29T15:24:24;1.77;;;1.27;;
11539;SDS011;5826;54.756;9.192;2022-07-29T15:26:50;1.52;;;1.10;;
11539;SDS011;5826;54.756;9.192;2022-07-29T15:29:15;1.35;;;1.23;;
11539;SDS011;5826;54.756;9.192;2022-07-29T15:31:41;1.50;;;1.25;;
11539;SDS011;5826;54.756;9.192;2022-07-29T15:34:07;1.33;;;1.10;;
11539;SDS011;5826;54.756;9.192;2022-07-29T15:36:33;2.47;;;1.00;;
11539;SDS011;5826;54.756;9.192;2022-07-29T15:38:59;1.48;;;1.20;;
11539;SDS011;5826;54.756;9.192;2022-07-29T15:41:25;1.30;;;1.10;;
11539;SDS011;5826;54.756;9.192;2022-07-29T15:43:50;2.22;;;1.17;;
11539;SDS011;5826;54.756;9.192;2022-07-29T15:46:16;1.45;;;1.10;;
11539;SDS011;5826;54.756;9.192;2022-07-29T15:49:02;1.50;;;1.08;;
11539;SDS011;5826;54.756;9.192;2022-07-29T15:51:29;4.00;;;1.38;;
11539;SDS011;5826;54.756;9.192;2022-07-29T15:53:55;2.15;;;1.30;;
11539;SDS011;5826;54.756;9.192;2022-07-29T15:56:20;1.58;;;1.40;;
11539;SDS011;5826;54.756;9.192;2022-07-29T15:58:46;1.25;;;1.10;;
11539;SDS011;5826;54.756;9.192;2022-07-29T16:01:12;1.40;;;1.10;;
11539;SDS011;5826;54.756;9.192;2022-07-29T16:03:38;2.75;;;1.38;;
11539;SDS011;5826;54.756;9.192;2022-07-29T16:06:04;1.23;;;0.98;;
11539;SDS011;5826;54.756;9.192;2022-07-29T16:08:29;1.75;;;1.20;;
11539;SDS011;5826;54.756;9.192;2022-07-29T16:10:55;1.10;;;0.88;;
11539;SDS011;5826;54.756;9.192;2022-07-29T16:13:21;1.50;;;1.10;;